sensor_id;sensor_type;location;lat;lon;timestamp;P1;durP1;ratioP1;P2;durP2;ratioP2
57341;SDS011;43175;51.002;18.316;2024-02-21T00:01:40;30.50;;;8.40;;
57341;SDS011;43175;51.002;18.316;2024-02-21T00:04:05;23.90;;;8.40;;
57341;SDS011;43175;51.002;18.316;2024-02-21T00:06:31;21.90;;;7.90;;
57341;SDS011;43175;51.002;18.316;2024-02-21T00:08:56;22.60;;;7.60;;
57341;SDS011;43175;51.002;18.316;2024-02-21T00:11:22;29.10;;;8.70;;
57341;SDS011;43175;51.002;18.316;2024-02-21T00:13:48;26.60;;;8.50;;
57341;SDS011;43175;51.002;18.316;2024-02-21T00:16:13;25.20;;;7.60;;
57341;SDS011;43175;51.002;18.316;2024-02-21T00:18:41;22.10;;;7.60;;
57341;SDS011;43175;51.002;18.316;2024-02-21T00:21:06;26.80;;;7.40;;
57341;SDS011;43175;51.002;18.316;2024-02-21T00:23:31;20.50;;;7.20;;
57341;SDS011;43175;51.002;18.316;2024-02-21T00:25:57;26.40;;;7.90;;
57341;SDS011;43175;51.002;18.316;2024-02-21T00:28:22;22.00;;;7.20;;
57341;SDS011;43175;51.002;18.316;2024-02-21T00:30:48;21.80;;;7.50;;
57341;SDS011;43175;51.002;18.316;2024-02-21T00:33:16;27.20;;;7.90;;
57341;SDS011;43175;51.002;18.316;2024-02-21T00:35:41;23.80;;;6.90;;
57341;SDS011;43175;51.002;18.316;2024-02-21T00:38:07;24.90;;;7.70;;
57341;SDS011;43175;51.002;18.316;2024-02-21T00:40:32;24.20;;;7.00;;
57341;SDS011;43175;51.002;18.316;2024-02-21T00:42:58;25.10;;;7.20;;
57341;SDS011;43175;51.002;18.316;2024-02-21T00:45:23;24.20;;;7.60;;
57341;SDS011;43175;51.002;18.316;2024-02-21T00:47:49;25.70;;;7.70;;
57341;SDS011;43175;51.002;18.316;2024-02-21T00:50:14;27.20;;;7.90;;
57341;SDS011;43175;51.002;18.316;2024-02-21T00:52:40;23.00;;;8.00;;
57341;SDS011;43175;51.002;18.316;2024-02-21T00:55:05;26.60;;;8.20;;
57341;SDS011;43175;51.002;18.316;2024-02-21T00:57:31;26.80;;;8.10;;
57341;SDS011;43175;51.002;18.316;2024-02-21T00:59:57;25.40;;;7.30;;
57341;SDS011;43175;51.002;18.316;2024-02-21T01:02:22;21.80;;;7.30;;
57341;SDS011;43175;51.002;18.316;2024-02-21T01:04:48;26.00;;;7.40;;
57341;SDS011;43175;51.002;18.316;2024-02-21T01:07:13;23.80;;;7.30;;
57341;SDS011;43175;51.002;18.316;2024-02-21T01:09:39;20.40;;;6.90;;
57341;SDS011;43175;51.002;18.316;2024-02-21T01:12:04;19.90;;;7.40;;
57341;SDS011;43175;51.002;18.316;2024-02-21T01:14:30;24.70;;;7.90;;
57341;SDS011;43175;51.002;18.316;2024-02-21T01:16:55;22.00;;;7.40;;
57341;SDS011;43175;51.002;18.316;2024-02-21T01:19:20;23.10;;;7.40;;
57341;SDS011;43175;51.002;18.316;2024-02-21T01:21:46;22.80;;;7.10;;
57341;SDS011;43175;51.002;18.316;2024-02-21T01:24:12;21.40;;;7.30;;
57341;SDS011;43175;51.002;18.316;2024-02-21T01:26:37;25.30;;;8.00;;
57341;SDS011;43175;51.002;18.316;2024-02-21T01:29:03;24.60;;;7.80;;
57341;SDS011;43175;51.002;18.316;2024-02-21T01:31:29;23.70;;;7.90;;
57341;SDS011;43175;51.002;18.316;2024-02-21T01:33:55;25.40;;;8.40;;
57341;SDS011;43175;51.002;18.316;2024-02-21T01:36:21;22.60;;;8.00;;
57341;SDS011;43175;51.002;18.316;2024-02-21T01:38:46;26.80;;;8.80;;
57341;SDS011;43175;51.002;18.316;2024-02-21T01:41:12;24.30;;;8.70;;
57341;SDS011;43175;51.002;18.316;2024-02-21T01:43:37;26.20;;;8.90;;
57341;SDS011;43175;51.002;18.316;2024-02-21T01:46:03;24.60;;;8.60;;
57341;SDS011;43175;51.002;18.316;2024-02-21T01:48:28;30.20;;;8.50;;
57341;SDS011;43175;51.002;18.316;2024-02-21T01:50:54;25.90;;;8.70;;
57341;SDS011;43175;51.002;18.316;2024-02-21T01:53:25;24.60;;;7.90;;
57341;SDS011;43175;51.002;18.316;2024-02-21T01:58:18;22.40;;;7.90;;
57341;SDS011;43175;51.002;18.316;2024-02-21T02:00:44;27.10;;;8.20;;
57341;SDS011;43175;51.002;18.316;2024-02-21T02:03:11;22.90;;;7.10;;
57341;SDS011;43175;51.002;18.316;2024-02-21T02:05:43;21.80;;;6.80;;
57341;SDS011;43175;51.002;18.316;2024-02-21T02:08:09;24.70;;;7.60;;
57341;SDS011;43175;51.002;18.316;2024-02-21T02:10:35;23.50;;;7.00;;
57341;SDS011;43175;51.002;18.316;2024-02-21T02:13:00;21.00;;;6.80;;
57341;SDS011;43175;51.002;18.316;2024-02-21T02:15:26;24.90;;;7.00;;
57341;SDS011;43175;51.002;18.316;2024-02-21T02:17:51;20.60;;;6.80;;
57341;SDS011;43175;51.002;18.316;2024-02-21T02:20:17;26.60;;;7.20;;
57341;SDS011;43175;51.002;18.316;2024-02-21T02:22:42;23.00;;;7.20;;
57341;SDS011;43175;51.002;18.316;2024-02-21T02:25:08;21.30;;;6.20;;
57341;SDS011;43175;51.002;18.316;2024-02-21T02:27:41;22.20;;;6.80;;
57341;SDS011;43175;51.002;18.316;2024-02-21T02:30:07;26.60;;;6.80;;
57341;SDS011;43175;51.002;18.316;2024-02-21T02:32:32;22.40;;;6.80;;
57341;SDS011;43175;51.002;18.316;2024-02-21T02:34:58;23.70;;;7.30;;
57341;SDS011;43175;51.002;18.316;2024-02-21T02:37:24;21.50;;;7.50;;
57341;SDS011;43175;51.002;18.316;2024-02-21T02:39:49;21.90;;;7.00;;
57341;SDS011;43175;51.002;18.316;2024-02-21T02:42:15;19.80;;;7.30;;
57341;SDS011;43175;51.002;18.316;2024-02-21T02:44:40;23.50;;;7.40;;
57341;SDS011;43175;51.002;18.316;2024-02-21T02:47:05;24.00;;;6.90;;
57341;SDS011;43175;51.002;18.316;2024-02-21T02:49:31;24.40;;;7.60;;
57341;SDS011;43175;51.002;18.316;2024-02-21T02:51:56;19.00;;;6.50;;
57341;SDS011;43175;51.002;18.316;2024-02-21T02:54:22;22.20;;;7.30;;
57341;SDS011;43175;51.002;18.316;2024-02-21T02:56:47;22.20;;;7.20;;
57341;SDS011;43175;51.002;18.316;2024-02-21T02:59:13;21.60;;;6.90;;
57341;SDS011;43175;51.002;18.316;2024-02-21T03:01:38;19.90;;;6.60;;
57341;SDS011;43175;51.002;18.316;2024-02-21T03:04:04;22.70;;;6.90;;
57341;SDS011;43175;51.002;18.316;2024-02-21T03:06:29;21.70;;;7.10;;
57341;SDS011;43175;51.002;18.316;2024-02-21T03:08:55;25.90;;;6.90;;
57341;SDS011;43175;51.002;18.316;2024-02-21T03:11:20;23.60;;;6.80;;
57341;SDS011;43175;51.002;18.316;2024-02-21T03:13:46;23.80;;;6.60;;
57341;SDS011;43175;51.002;18.316;2024-02-21T03:16:11;21.50;;;7.10;;
57341;SDS011;43175;51.002;18.316;2024-02-21T03:18:37;17.90;;;6.80;;
57341;SDS011;43175;51.002;18.316;2024-02-21T03:21:02;20.70;;;6.50;;
57341;SDS011;43175;51.002;18.316;2024-02-21T03:23:28;20.90;;;7.00;;
57341;SDS011;43175;51.002;18.316;2024-02-21T03:25:53;23.90;;;6.70;;
57341;SDS011;43175;51.002;18.316;2024-02-21T03:28:20;21.70;;;6.50;;
57341;SDS011;43175;51.002;18.316;2024-02-21T03:30:45;23.10;;;7.30;;
57341;SDS011;43175;51.002;18.316;2024-02-21T03:33:10;23.00;;;6.60;;
57341;SDS011;43175;51.002;18.316;2024-02-21T03:35:36;26.40;;;6.70;;
57341;SDS011;43175;51.002;18.316;2024-02-21T03:38:01;17.10;;;5.90;;
57341;SDS011;43175;51.002;18.316;2024-02-21T03:40:27;22.70;;;6.20;;
57341;SDS011;43175;51.002;18.316;2024-02-21T03:42:52;24.60;;;7.30;;
57341;SDS011;43175;51.002;18.316;2024-02-21T03:45:18;19.80;;;6.60;;
57341;SDS011;43175;51.002;18.316;2024-02-21T03:47:43;18.30;;;6.30;;
57341;SDS011;43175;51.002;18.316;2024-02-21T03:50:09;19.30;;;6.80;;
57341;SDS011;43175;51.002;18.316;2024-02-21T03:52:34;18.00;;;6.60;;
57341;SDS011;43175;51.002;18.316;2024-02-21T03:55:00;20.60;;;6.50;;
57341;SDS011;43175;51.002;18.316;2024-02-21T03:57:25;19.00;;;6.40;;
57341;SDS011;43175;51.002;18.316;2024-02-21T03:59:50;23.40;;;6.30;;
57341;SDS011;43175;51.002;18.316;2024-02-21T04:02:17;18.10;;;6.70;;
57341;SDS011;43175;51.002;18.316;2024-02-21T04:04:43;20.30;;;6.90;;
57341;SDS011;43175;51.002;18.316;2024-02-21T04:07:08;20.20;;;7.00;;
57341;SDS011;43175;51.002;18.316;2024-02-21T04:09:34;20.90;;;6.80;;
57341;SDS011;43175;51.002;18.316;2024-02-21T04:12:00;20.20;;;7.10;;
57341;SDS011;43175;51.002;18.316;2024-02-21T04:14:26;21.50;;;6.90;;
57341;SDS011;43175;51.002;18.316;2024-02-21T04:16:51;20.90;;;6.60;;
57341;SDS011;43175;51.002;18.316;2024-02-21T04:19:17;19.10;;;6.80;;
57341;SDS011;43175;51.002;18.316;2024-02-21T04:21:42;17.10;;;6.70;;
57341;SDS011;43175;51.002;18.316;2024-02-21T04:24:08;19.90;;;6.80;;
57341;SDS011;43175;51.002;18.316;2024-02-21T04:26:33;18.90;;;6.80;;
57341;SDS011;43175;51.002;18.316;2024-02-21T04:28:59;20.20;;;6.90;;
57341;SDS011;43175;51.002;18.316;2024-02-21T04:31:25;19.80;;;7.10;;
57341;SDS011;43175;51.002;18.316;2024-02-21T04:33:51;19.90;;;7.10;;
57341;SDS011;43175;51.002;18.316;2024-02-21T04:36:16;20.40;;;7.10;;
57341;SDS011;43175;51.002;18.316;2024-02-21T04:38:42;17.90;;;7.00;;
57341;SDS011;43175;51.002;18.316;2024-02-21T04:41:07;19.50;;;7.00;;
57341;SDS011;43175;51.002;18.316;2024-02-21T04:43:33;23.00;;;7.00;;
57341;SDS011;43175;51.002;18.316;2024-02-21T04:45:58;20.10;;;6.90;;
57341;SDS011;43175;51.002;18.316;2024-02-21T04:48:24;19.40;;;7.50;;
57341;SDS011;43175;51.002;18.316;2024-02-21T04:50:49;21.40;;;7.30;;
57341;SDS011;43175;51.002;18.316;2024-02-21T04:53:15;21.10;;;7.30;;
57341;SDS011;43175;51.002;18.316;2024-02-21T04:55:41;19.00;;;7.40;;
57341;SDS011;43175;51.002;18.316;2024-02-21T04:58:07;24.70;;;7.10;;
57341;SDS011;43175;51.002;18.316;2024-02-21T05:00:32;21.40;;;7.20;;
57341;SDS011;43175;51.002;18.316;2024-02-21T05:02:58;21.60;;;7.60;;
57341;SDS011;43175;51.002;18.316;2024-02-21T05:05:23;19.80;;;6.50;;
57341;SDS011;43175;51.002;18.316;2024-02-21T05:07:49;22.10;;;7.70;;
57341;SDS011;43175;51.002;18.316;2024-02-21T05:10:14;19.20;;;6.90;;
57341;SDS011;43175;51.002;18.316;2024-02-21T05:12:40;22.30;;;7.70;;
57341;SDS011;43175;51.002;18.316;2024-02-21T05:15:05;20.40;;;7.30;;
57341;SDS011;43175;51.002;18.316;2024-02-21T05:17:31;20.70;;;7.30;;
57341;SDS011;43175;51.002;18.316;2024-02-21T05:19:56;16.30;;;7.10;;
57341;SDS011;43175;51.002;18.316;2024-02-21T05:22:22;19.10;;;6.80;;
57341;SDS011;43175;51.002;18.316;2024-02-21T05:24:47;19.30;;;7.20;;
57341;SDS011;43175;51.002;18.316;2024-02-21T05:27:13;21.10;;;7.20;;
57341;SDS011;43175;51.002;18.316;2024-02-21T05:29:38;18.70;;;7.00;;
57341;SDS011;43175;51.002;18.316;2024-02-21T05:32:04;19.00;;;7.40;;
57341;SDS011;43175;51.002;18.316;2024-02-21T05:34:29;20.20;;;7.00;;
57341;SDS011;43175;51.002;18.316;2024-02-21T05:36:54;22.40;;;7.30;;
57341;SDS011;43175;51.002;18.316;2024-02-21T05:39:20;17.80;;;7.20;;
57341;SDS011;43175;51.002;18.316;2024-02-21T05:41:48;18.70;;;7.30;;
57341;SDS011;43175;51.002;18.316;2024-02-21T05:44:14;19.30;;;7.60;;
57341;SDS011;43175;51.002;18.316;2024-02-21T05:46:39;19.00;;;7.40;;
57341;SDS011;43175;51.002;18.316;2024-02-21T05:49:04;18.70;;;7.50;;
57341;SDS011;43175;51.002;18.316;2024-02-21T05:51:33;22.50;;;10.60;;
57341;SDS011;43175;51.002;18.316;2024-02-21T05:53:59;20.90;;;9.00;;
57341;SDS011;43175;51.002;18.316;2024-02-21T05:56:24;27.50;;;9.60;;
57341;SDS011;43175;51.002;18.316;2024-02-21T05:58:50;22.30;;;8.70;;
57341;SDS011;43175;51.002;18.316;2024-02-21T06:01:15;21.00;;;9.30;;
57341;SDS011;43175;51.002;18.316;2024-02-21T06:03:40;28.30;;;14.40;;
57341;SDS011;43175;51.002;18.316;2024-02-21T06:06:06;22.60;;;9.60;;
57341;SDS011;43175;51.002;18.316;2024-02-21T06:08:31;19.00;;;8.30;;
57341;SDS011;43175;51.002;18.316;2024-02-21T06:10:57;23.70;;;9.50;;
57341;SDS011;43175;51.002;18.316;2024-02-21T06:13:25;25.30;;;9.80;;
57341;SDS011;43175;51.002;18.316;2024-02-21T06:15:51;27.80;;;15.20;;
57341;SDS011;43175;51.002;18.316;2024-02-21T06:18:17;20.00;;;9.60;;
57341;SDS011;43175;51.002;18.316;2024-02-21T06:20:42;20.50;;;8.80;;
57341;SDS011;43175;51.002;18.316;2024-02-21T06:23:08;25.20;;;8.60;;
57341;SDS011;43175;51.002;18.316;2024-02-21T06:25:34;20.50;;;8.30;;
57341;SDS011;43175;51.002;18.316;2024-02-21T06:27:59;20.70;;;9.20;;
57341;SDS011;43175;51.002;18.316;2024-02-21T06:30:24;19.50;;;8.10;;
57341;SDS011;43175;51.002;18.316;2024-02-21T06:32:50;23.60;;;8.70;;
57341;SDS011;43175;51.002;18.316;2024-02-21T06:35:15;19.50;;;8.10;;
57341;SDS011;43175;51.002;18.316;2024-02-21T06:37:42;23.70;;;8.70;;
57341;SDS011;43175;51.002;18.316;2024-02-21T06:40:07;25.60;;;9.00;;
57341;SDS011;43175;51.002;18.316;2024-02-21T06:42:33;21.50;;;8.90;;
57341;SDS011;43175;51.002;18.316;2024-02-21T06:44:58;20.90;;;8.20;;
57341;SDS011;43175;51.002;18.316;2024-02-21T06:47:24;21.30;;;9.30;;
57341;SDS011;43175;51.002;18.316;2024-02-21T06:49:50;24.00;;;9.00;;
57341;SDS011;43175;51.002;18.316;2024-02-21T06:52:19;24.20;;;9.20;;
57341;SDS011;43175;51.002;18.316;2024-02-21T06:54:49;22.70;;;9.00;;
57341;SDS011;43175;51.002;18.316;2024-02-21T06:57:14;26.80;;;9.40;;
57341;SDS011;43175;51.002;18.316;2024-02-21T06:59:43;20.80;;;9.10;;
57341;SDS011;43175;51.002;18.316;2024-02-21T07:02:08;25.50;;;9.00;;
57341;SDS011;43175;51.002;18.316;2024-02-21T07:04:34;22.80;;;9.20;;
57341;SDS011;43175;51.002;18.316;2024-02-21T07:06:59;20.70;;;8.80;;
57341;SDS011;43175;51.002;18.316;2024-02-21T07:09:25;21.00;;;8.70;;
57341;SDS011;43175;51.002;18.316;2024-02-21T07:11:50;22.80;;;8.70;;
57341;SDS011;43175;51.002;18.316;2024-02-21T07:14:16;24.10;;;9.00;;
57341;SDS011;43175;51.002;18.316;2024-02-21T07:16:41;22.90;;;9.60;;
57341;SDS011;43175;51.002;18.316;2024-02-21T07:19:06;25.20;;;11.20;;
57341;SDS011;43175;51.002;18.316;2024-02-21T07:21:32;25.30;;;10.60;;
57341;SDS011;43175;51.002;18.316;2024-02-21T07:23:57;22.00;;;9.90;;
57341;SDS011;43175;51.002;18.316;2024-02-21T07:26:23;23.90;;;9.20;;
57341;SDS011;43175;51.002;18.316;2024-02-21T07:28:48;21.30;;;9.70;;
57341;SDS011;43175;51.002;18.316;2024-02-21T07:31:14;22.80;;;9.60;;
57341;SDS011;43175;51.002;18.316;2024-02-21T07:33:40;20.40;;;9.60;;
57341;SDS011;43175;51.002;18.316;2024-02-21T07:36:06;24.80;;;10.30;;
57341;SDS011;43175;51.002;18.316;2024-02-21T07:38:32;23.10;;;11.30;;
57341;SDS011;43175;51.002;18.316;2024-02-21T07:40:57;24.50;;;10.20;;
57341;SDS011;43175;51.002;18.316;2024-02-21T07:43:23;34.20;;;15.90;;
57341;SDS011;43175;51.002;18.316;2024-02-21T07:45:48;38.50;;;21.50;;
57341;SDS011;43175;51.002;18.316;2024-02-21T07:48:14;38.30;;;20.60;;
57341;SDS011;43175;51.002;18.316;2024-02-21T07:50:39;28.70;;;15.30;;
57341;SDS011;43175;51.002;18.316;2024-02-21T07:53:04;24.00;;;11.30;;
57341;SDS011;43175;51.002;18.316;2024-02-21T07:55:30;26.40;;;12.50;;
57341;SDS011;43175;51.002;18.316;2024-02-21T07:57:55;23.60;;;11.60;;
57341;SDS011;43175;51.002;18.316;2024-02-21T08:00:21;23.70;;;11.50;;
57341;SDS011;43175;51.002;18.316;2024-02-21T08:02:47;24.40;;;11.40;;
57341;SDS011;43175;51.002;18.316;2024-02-21T08:05:12;24.70;;;11.90;;
57341;SDS011;43175;51.002;18.316;2024-02-21T08:07:38;22.90;;;10.90;;
57341;SDS011;43175;51.002;18.316;2024-02-21T08:10:04;27.20;;;11.40;;
57341;SDS011;43175;51.002;18.316;2024-02-21T08:12:29;21.90;;;10.50;;
57341;SDS011;43175;51.002;18.316;2024-02-21T08:14:55;22.80;;;11.50;;
57341;SDS011;43175;51.002;18.316;2024-02-21T08:17:20;21.30;;;9.80;;
57341;SDS011;43175;51.002;18.316;2024-02-21T08:19:49;21.70;;;9.70;;
57341;SDS011;43175;51.002;18.316;2024-02-21T08:22:14;24.30;;;11.00;;
57341;SDS011;43175;51.002;18.316;2024-02-21T08:24:40;26.60;;;10.90;;
57341;SDS011;43175;51.002;18.316;2024-02-21T08:27:05;22.70;;;10.80;;
57341;SDS011;43175;51.002;18.316;2024-02-21T08:29:31;24.30;;;10.40;;
57341;SDS011;43175;51.002;18.316;2024-02-21T08:31:56;27.00;;;13.00;;
57341;SDS011;43175;51.002;18.316;2024-02-21T08:34:22;21.60;;;11.10;;
57341;SDS011;43175;51.002;18.316;2024-02-21T08:36:47;28.60;;;13.70;;
57341;SDS011;43175;51.002;18.316;2024-02-21T08:39:12;27.40;;;11.70;;
57341;SDS011;43175;51.002;18.316;2024-02-21T08:41:42;25.90;;;11.30;;
57341;SDS011;43175;51.002;18.316;2024-02-21T08:44:07;21.40;;;11.10;;
57341;SDS011;43175;51.002;18.316;2024-02-21T08:46:33;23.80;;;11.00;;
57341;SDS011;43175;51.002;18.316;2024-02-21T08:48:58;22.60;;;10.30;;
57341;SDS011;43175;51.002;18.316;2024-02-21T08:51:23;22.70;;;10.30;;
57341;SDS011;43175;51.002;18.316;2024-02-21T08:53:49;22.50;;;10.80;;
57341;SDS011;43175;51.002;18.316;2024-02-21T08:56:15;21.90;;;9.50;;
57341;SDS011;43175;51.002;18.316;2024-02-21T08:58:41;22.10;;;10.10;;
57341;SDS011;43175;51.002;18.316;2024-02-21T09:01:07;25.80;;;11.90;;
57341;SDS011;43175;51.002;18.316;2024-02-21T09:03:38;26.90;;;11.70;;
57341;SDS011;43175;51.002;18.316;2024-02-21T09:06:04;23.90;;;11.30;;
57341;SDS011;43175;51.002;18.316;2024-02-21T09:08:29;23.00;;;10.00;;
57341;SDS011;43175;51.002;18.316;2024-02-21T09:10:55;21.70;;;9.70;;
57341;SDS011;43175;51.002;18.316;2024-02-21T09:13:20;22.50;;;10.40;;
57341;SDS011;43175;51.002;18.316;2024-02-21T09:15:46;21.00;;;9.60;;
57341;SDS011;43175;51.002;18.316;2024-02-21T09:18:12;23.90;;;10.70;;
57341;SDS011;43175;51.002;18.316;2024-02-21T09:20:37;22.10;;;9.70;;
57341;SDS011;43175;51.002;18.316;2024-02-21T09:23:03;26.00;;;12.60;;
57341;SDS011;43175;51.002;18.316;2024-02-21T09:25:28;24.00;;;10.10;;
57341;SDS011;43175;51.002;18.316;2024-02-21T09:27:54;21.80;;;9.80;;
57341;SDS011;43175;51.002;18.316;2024-02-21T09:30:20;24.00;;;10.30;;
57341;SDS011;43175;51.002;18.316;2024-02-21T09:32:45;25.80;;;12.40;;
57341;SDS011;43175;51.002;18.316;2024-02-21T09:35:11;32.00;;;15.30;;
57341;SDS011;43175;51.002;18.316;2024-02-21T09:37:38;25.10;;;10.10;;
57341;SDS011;43175;51.002;18.316;2024-02-21T09:40:04;24.50;;;10.70;;
57341;SDS011;43175;51.002;18.316;2024-02-21T09:42:39;25.50;;;12.00;;
57341;SDS011;43175;51.002;18.316;2024-02-21T09:45:07;23.60;;;10.30;;
57341;SDS011;43175;51.002;18.316;2024-02-21T09:50:17;26.30;;;10.30;;
57341;SDS011;43175;51.002;18.316;2024-02-21T09:52:43;23.20;;;9.70;;
57341;SDS011;43175;51.002;18.316;2024-02-21T09:55:09;20.60;;;9.40;;
57341;SDS011;43175;51.002;18.316;2024-02-21T09:57:37;24.60;;;9.50;;
57341;SDS011;43175;51.002;18.316;2024-02-21T10:00:04;26.80;;;10.00;;
57341;SDS011;43175;51.002;18.316;2024-02-21T10:02:32;21.90;;;9.20;;
57341;SDS011;43175;51.002;18.316;2024-02-21T10:04:58;22.80;;;8.90;;
57341;SDS011;43175;51.002;18.316;2024-02-21T10:07:23;20.30;;;8.90;;
57341;SDS011;43175;51.002;18.316;2024-02-21T10:10:03;19.20;;;8.80;;
57341;SDS011;43175;51.002;18.316;2024-02-21T10:12:29;20.90;;;9.50;;
57341;SDS011;43175;51.002;18.316;2024-02-21T10:15:05;23.80;;;10.70;;
57341;SDS011;43175;51.002;18.316;2024-02-21T10:17:31;26.20;;;11.00;;
57341;SDS011;43175;51.002;18.316;2024-02-21T10:20:06;30.30;;;12.20;;
57341;SDS011;43175;51.002;18.316;2024-02-21T10:22:32;25.20;;;10.70;;
57341;SDS011;43175;51.002;18.316;2024-02-21T10:25:10;21.50;;;8.70;;
57341;SDS011;43175;51.002;18.316;2024-02-21T10:27:37;20.10;;;8.60;;
57341;SDS011;43175;51.002;18.316;2024-02-21T10:30:04;21.60;;;8.30;;
57341;SDS011;43175;51.002;18.316;2024-02-21T10:32:30;20.50;;;8.80;;
57341;SDS011;43175;51.002;18.316;2024-02-21T10:35:02;21.20;;;7.60;;
57341;SDS011;43175;51.002;18.316;2024-02-21T10:37:31;20.90;;;8.80;;
57341;SDS011;43175;51.002;18.316;2024-02-21T10:39:57;19.80;;;8.50;;
57341;SDS011;43175;51.002;18.316;2024-02-21T10:42:23;21.80;;;8.90;;
57341;SDS011;43175;51.002;18.316;2024-02-21T10:44:51;22.20;;;9.00;;
57341;SDS011;43175;51.002;18.316;2024-02-21T10:47:17;22.10;;;9.00;;
57341;SDS011;43175;51.002;18.316;2024-02-21T10:49:50;21.30;;;9.00;;
57341;SDS011;43175;51.002;18.316;2024-02-21T10:52:45;20.10;;;8.80;;
57341;SDS011;43175;51.002;18.316;2024-02-21T10:55:10;21.40;;;9.80;;
57341;SDS011;43175;51.002;18.316;2024-02-21T10:57:38;19.00;;;8.10;;
57341;SDS011;43175;51.002;18.316;2024-02-21T11:00:03;20.40;;;8.00;;
57341;SDS011;43175;51.002;18.316;2024-02-21T11:02:33;18.60;;;7.80;;
57341;SDS011;43175;51.002;18.316;2024-02-21T11:04:59;21.10;;;8.00;;
57341;SDS011;43175;51.002;18.316;2024-02-21T11:07:25;22.80;;;10.40;;
57341;SDS011;43175;51.002;18.316;2024-02-21T11:09:51;22.00;;;8.60;;
57341;SDS011;43175;51.002;18.316;2024-02-21T11:12:20;19.50;;;8.60;;
57341;SDS011;43175;51.002;18.316;2024-02-21T11:14:46;25.30;;;10.80;;
57341;SDS011;43175;51.002;18.316;2024-02-21T11:17:18;21.00;;;9.80;;
57341;SDS011;43175;51.002;18.316;2024-02-21T11:22:16;22.70;;;9.70;;
57341;SDS011;43175;51.002;18.316;2024-02-21T11:24:42;21.30;;;10.20;;
57341;SDS011;43175;51.002;18.316;2024-02-21T11:29:43;23.20;;;9.20;;
57341;SDS011;43175;51.002;18.316;2024-02-21T11:34:34;22.00;;;9.10;;
57341;SDS011;43175;51.002;18.316;2024-02-21T11:36:59;23.80;;;10.10;;
57341;SDS011;43175;51.002;18.316;2024-02-21T11:39:25;22.60;;;10.30;;
57341;SDS011;43175;51.002;18.316;2024-02-21T11:42:03;22.20;;;9.30;;
57341;SDS011;43175;51.002;18.316;2024-02-21T11:44:29;21.00;;;9.30;;
57341;SDS011;43175;51.002;18.316;2024-02-21T11:46:55;20.00;;;8.80;;
57341;SDS011;43175;51.002;18.316;2024-02-21T11:49:21;24.30;;;9.10;;
57341;SDS011;43175;51.002;18.316;2024-02-21T11:51:46;21.10;;;8.40;;
57341;SDS011;43175;51.002;18.316;2024-02-21T11:54:12;21.40;;;8.80;;
57341;SDS011;43175;51.002;18.316;2024-02-21T11:56:41;21.60;;;8.50;;
57341;SDS011;43175;51.002;18.316;2024-02-21T11:59:07;20.60;;;8.10;;
57341;SDS011;43175;51.002;18.316;2024-02-21T12:01:33;17.40;;;8.20;;
57341;SDS011;43175;51.002;18.316;2024-02-21T12:03:59;26.40;;;9.90;;
57341;SDS011;43175;51.002;18.316;2024-02-21T12:06:24;21.30;;;9.10;;
57341;SDS011;43175;51.002;18.316;2024-02-21T12:08:50;23.20;;;10.80;;
57341;SDS011;43175;51.002;18.316;2024-02-21T12:11:20;23.50;;;10.60;;
57341;SDS011;43175;51.002;18.316;2024-02-21T12:13:46;23.60;;;11.30;;
57341;SDS011;43175;51.002;18.316;2024-02-21T12:16:14;22.40;;;10.00;;
57341;SDS011;43175;51.002;18.316;2024-02-21T12:18:40;21.70;;;9.50;;
57341;SDS011;43175;51.002;18.316;2024-02-21T12:21:05;22.40;;;9.80;;
57341;SDS011;43175;51.002;18.316;2024-02-21T12:23:31;20.40;;;9.60;;
57341;SDS011;43175;51.002;18.316;2024-02-21T12:25:56;24.10;;;9.60;;
57341;SDS011;43175;51.002;18.316;2024-02-21T12:28:24;25.30;;;9.90;;
57341;SDS011;43175;51.002;18.316;2024-02-21T12:30:50;23.90;;;8.90;;
57341;SDS011;43175;51.002;18.316;2024-02-21T12:33:15;20.50;;;9.40;;
57341;SDS011;43175;51.002;18.316;2024-02-21T12:35:41;22.60;;;9.80;;
57341;SDS011;43175;51.002;18.316;2024-02-21T12:38:06;22.60;;;11.30;;
57341;SDS011;43175;51.002;18.316;2024-02-21T12:40:32;20.70;;;10.10;;
57341;SDS011;43175;51.002;18.316;2024-02-21T12:42:59;21.60;;;9.90;;
57341;SDS011;43175;51.002;18.316;2024-02-21T12:45:25;22.20;;;10.20;;
57341;SDS011;43175;51.002;18.316;2024-02-21T12:47:50;21.50;;;10.40;;
57341;SDS011;43175;51.002;18.316;2024-02-21T12:50:16;25.00;;;10.80;;
57341;SDS011;43175;51.002;18.316;2024-02-21T12:52:41;23.40;;;10.10;;
57341;SDS011;43175;51.002;18.316;2024-02-21T12:55:07;22.20;;;9.50;;
57341;SDS011;43175;51.002;18.316;2024-02-21T12:57:35;23.10;;;10.40;;
57341;SDS011;43175;51.002;18.316;2024-02-21T13:00:00;22.10;;;9.90;;
57341;SDS011;43175;51.002;18.316;2024-02-21T13:02:26;42.70;;;21.00;;
57341;SDS011;43175;51.002;18.316;2024-02-21T13:04:51;24.40;;;13.40;;
57341;SDS011;43175;51.002;18.316;2024-02-21T13:07:17;27.60;;;11.50;;
57341;SDS011;43175;51.002;18.316;2024-02-21T13:09:42;24.40;;;10.70;;
57341;SDS011;43175;51.002;18.316;2024-02-21T13:12:08;21.30;;;10.00;;
57341;SDS011;43175;51.002;18.316;2024-02-21T13:14:33;21.70;;;10.30;;
57341;SDS011;43175;51.002;18.316;2024-02-21T13:17:00;26.10;;;11.20;;
57341;SDS011;43175;51.002;18.316;2024-02-21T13:19:26;23.00;;;11.00;;
57341;SDS011;43175;51.002;18.316;2024-02-21T13:21:51;25.90;;;12.00;;
57341;SDS011;43175;51.002;18.316;2024-02-21T13:24:17;30.50;;;15.80;;
57341;SDS011;43175;51.002;18.316;2024-02-21T13:26:42;32.60;;;15.90;;
57341;SDS011;43175;51.002;18.316;2024-02-21T13:29:07;27.00;;;11.90;;
57341;SDS011;43175;51.002;18.316;2024-02-21T13:31:33;25.70;;;11.60;;
57341;SDS011;43175;51.002;18.316;2024-02-21T13:33:58;22.80;;;11.10;;
57341;SDS011;43175;51.002;18.316;2024-02-21T13:36:24;22.40;;;10.50;;
57341;SDS011;43175;51.002;18.316;2024-02-21T13:38:49;23.20;;;10.20;;
57341;SDS011;43175;51.002;18.316;2024-02-21T13:41:16;20.70;;;9.70;;
57341;SDS011;43175;51.002;18.316;2024-02-21T13:43:43;26.10;;;11.60;;
57341;SDS011;43175;51.002;18.316;2024-02-21T13:46:08;22.30;;;11.90;;
57341;SDS011;43175;51.002;18.316;2024-02-21T13:48:36;22.70;;;10.60;;
57341;SDS011;43175;51.002;18.316;2024-02-21T13:51:02;27.80;;;13.40;;
57341;SDS011;43175;51.002;18.316;2024-02-21T13:53:28;30.30;;;15.10;;
57341;SDS011;43175;51.002;18.316;2024-02-21T13:55:53;26.00;;;13.80;;
57341;SDS011;43175;51.002;18.316;2024-02-21T13:58:19;27.60;;;14.60;;
57341;SDS011;43175;51.002;18.316;2024-02-21T14:00:45;30.50;;;15.90;;
57341;SDS011;43175;51.002;18.316;2024-02-21T14:03:10;23.20;;;12.00;;
57341;SDS011;43175;51.002;18.316;2024-02-21T14:05:36;33.10;;;20.40;;
57341;SDS011;43175;51.002;18.316;2024-02-21T14:08:01;39.80;;;24.20;;
57341;SDS011;43175;51.002;18.316;2024-02-21T14:10:27;28.80;;;17.50;;
57341;SDS011;43175;51.002;18.316;2024-02-21T14:12:53;31.90;;;19.60;;
57341;SDS011;43175;51.002;18.316;2024-02-21T14:15:19;45.20;;;30.00;;
57341;SDS011;43175;51.002;18.316;2024-02-21T14:17:44;48.80;;;31.70;;
57341;SDS011;43175;51.002;18.316;2024-02-21T14:20:10;28.30;;;16.50;;
57341;SDS011;43175;51.002;18.316;2024-02-21T14:22:36;28.40;;;14.40;;
57341;SDS011;43175;51.002;18.316;2024-02-21T14:25:03;22.40;;;12.30;;